Hauptseite
METAR-TAF:

METAR-TAF

Flughäfen :

Soyo, Angola

Breite: 6-8-28S, Länge: 12-22-19E, Höhe: 5 m

METAR: fehlend

Zeit: 05:40 (04:40 UTC)

Prognose

Neuester Wetterbericht von vor 5 Stunden und 40 Minuten, um 23:00 UTC
Gültige Prognose vom 25 um 00 UTC bis 25 um 12 UTC
Wind 3 kt aus unterschiedlichen Richtungen
Sichtweite 10 km oder mehr
Leicht bewölkt in der Höhe von 2200 ft
Übergehend zu
vom 25 um 08 UTC bis 25 um 10 UTC
Sichtweite: 4000 m
feuchter Dunst
Zeitweise
vom 25 um 10 UTC bis 25 um 12 UTC
Wind 5 kt aus Süd/Südwest
Aufgelockert bewölkt in der Höhe von 2200 ft

TAF: FNSO 242300Z 2500/2512 VRB03KT 9999 FEW022 BECMG 2508/2510 4000 BR TEMPO 2510/2512 21005KT SCT022

Wetterbeobachtungen und Prognosen von mehr als 4000 Flughäfen (METAR und TAF Bericht).

Die verfügbaren Stationen werden durch gelbe und rote Markierungen auf der Karte dargestellt.

Führen Sie die Maus auf sie, um den Namen der Station zu sehen.

Darauf klicken, um die Beobachtung von Wetterbeobachtungen und Prognosen zu sehen.

Um die Karte zu ändern : klicken Sie auf den grünen Tasten mit einem schwarzen Kreuz Zum Vergrößern, auf den grünen Button mit einem Gedankenstrich zu verkleinern, oder auf die grünen Pfeile für benachbarte Karten.


METAR-TAF: